Aeroporto :
LOGIN :

Iscrizione | Disclaimer

   EN    FR    IT 

 










Sommario :    VFR   VFR Marginale   IFR   IFR Intensivo   IFR Molto Intensivo
Visibilità : 
Base nubi : 
>= 8 km
>= 3000ft
5 / 8 km
1000 / 3000 ft
1500m / 5 km
500 / 1000 ft
800 / 1500m
200 / 500 ft
< 800m
< 200 ft
Simboli :   Temporali  Nebbia  Neve Forte  Precipitazioni Forti  Vento > 20 kt
SIGMETs :   Varie  Temporali  Ghiacco  Turbolenza  Onda orograficha  Ceneri Vulcaniche






- Altitudine del aeroporto : 8 ft
- Codice IATA : JCU


GECE - Ceuta Heliport

ULTIMO METAR :
  • 141230Z AUTO VRB03KT CAVOK 23/18 Q1016

METARs OBSOLETI :
  • 141200Z AUTO 01004KT 310V070 CAVOK 22/18 Q1016
  • 141130Z AUTO 01004KT 330V110 CAVOK 22/18 Q1016
  • 141100Z AUTO 11004KT 050V160 CAVOK 23/18 Q1016
  • 141030Z AUTO 12005KT 050V170 CAVOK 23/18 Q1016
  • 141000Z AUTO VRB05KT CAVOK 23/18 Q1016
  • 140930Z AUTO 12004KT 020V190 9999 FEW011 23/18 Q1016
  • 140900Z AUTO VRB05KT 9999 SCT011 23/18 Q1016
  • 140830Z AUTO VRB04KT 9999 FEW012 22/18 Q1016
  • 140800Z AUTO 10004KT 010V170 CAVOK 22/18 Q1016

TAF TAF GECE
Valido dal 14 a 09 ore il 15 a 09 ore UTC


140800Z 1409/1509 12006KT 9999 FEW020 TX26/1415Z TN20/1505Z
PROB30
TEMPO 1409/1410 BKN010
BECMG 1417/1420 29010KT
PROB40
TEMPO 1506/1509 29015G27KT



MetMap, La meteo Aeronautica in un colpo d'occhio ! - Copyright ORBIFLY Dicembre 2007 - Disclaimer

ORBIFLY MET'MAP TEAM :

Programmazione e sviluppo : Alexandra Zaïnal
Concezione : Baudouin d'Aumeries
Supporto tecnico e logistico : Manuel Goepfert
Aiuto : Marc-Olivier Méhu
Aiuto per la traduzione : Arnaldo La Scala




FONTI E CREDITI :

   NOAA